WEATHER DATA

TODAY
Time Temp. Dewp. Hum. Wind dir Wind speed Wind gust Bar. 1h Prec. 24h Prec.
00:01 0.8 -0.2 93 278 1.4 2.8 1019.9 0.0000 0.0000
00:11 0.8 -0.2 93 270 0.8 1.7 1019.9 0.0000 0.0000
00:21 0.8 -0.2 93 270 1.4 3.6 1019.8 0.0000 0.0000
00:31 0.7 -0.3 93 270 1.1 2.2 1019.6 0.0000 0.0000
00:41 0.7 -0.3 93 280 1.4 3.1 1019.7 0.0000 0.0000
00:51 0.7 -0.3 93 270 1.1 3.1 1019.8 0.0000 0.0000
01:01 0.7 -0.3 93 281 1.1 2.5 1019.9 0.0000 0.0000
01:12 0.6 -0.4 93 285 1.1 2.5 1019.8 0.0000 0.0000
01:22 0.6 -0.4 93 286 1.4 3.3 1019.7 0.0000 0.0000
01:31 0.6 -0.4 93 280 1.9 4.2 1019.7 0.0000 0.0000
01:42 0.5 -0.4 93 285 1.4 3.1 1019.7 0.0000 0.0000
01:52 0.5 -0.4 93 282 1.7 3.6 1019.6 0.0000 0.0000
02:02 0.5 -0.6 92 280 1.1 3.1 1019.6 0.0000 0.0000
02:12 0.4 -0.7 92 270 1.1 2.2 1019.4 0.0000 0.0000
02:22 0.4 -0.7 92 240 1.1 1.9 1019.3 0.0000 0.0000
02:32 0.4 -0.7 92 270 0.8 1.9 1019.3 0.0000 0.0000
02:42 0.3 -0.6 93 281 0.8 1.9 1019.4 0.0000 0.0000
02:52 0.3 -0.6 93 245 1.1 1.9 1019.1 0.0000 0.0000
03:03 0.2 -0.7 93 262 1.1 2.2 1019.1 0.0000 0.0000
03:12 0.2 -0.7 93 241 1.1 1.9 1019 0.0000 0.0000
03:22 0.2 -0.7 93 252 1.4 2.8 1019 0.0000 0.0000
03:33 0.2 -0.7 93 256 1.4 2.8 1018.8 0.0000 0.0000
03:43 0.2 -0.6 94 255 1.7 2.8 1018.8 0.0000 0.0000
03:53 0.1 -0.7 94 253 1.1 2.2 1018.8 0.0000 0.0000
04:03 0.1 -0.7 94 260 1.1 2.2 1018.8 0.0000 0.0000
04:13 0.1 -0.7 94 239 1.4 2.8 1018.7 0.0000 0.0000
04:23 0.1 -0.7 94 240 1.1 2.5 1018.6 0.0000 0.0000
04:33 0.1 -0.7 94 234 0.8 1.9 1018.5 0.0000 0.0000
04:44 0 -0.7 94 242 1.1 1.9 1018.7 0.0000 0.0000
04:53 0 -0.6 95 258 1.1 2.5 1018.6 0.0000 0.0000
05:03 0 -0.6 95 254 1.4 3.1 1018.4 0.0000 0.0000
05:13 -0.1 -0.7 95 234 1.4 3.3 1018.3 0.0000 0.0000
05:24 -0.1 -0.7 95 236 1.9 5 1018.2 0.0000 0.0000
05:34 -0.1 -0.7 95 231 1.9 4.4 1018.2 0.0000 0.0000
05:43 -0.1 -0.7 95 233 2.2 4.4 1018.1 0.0000 0.0000
05:54 -0.1 -0.7 95 241 1.4 3.3 1018 0.0000 0.0000
06:04 -0.1 -0.7 95 257 1.4 3.3 1018 0.0000 0.0000
06:14 -0.1 -0.7 95 245 1.4 3.1 1017.9 0.0000 0.0000
06:24 -0.1 -0.7 95 232 1.9 4.2 1017.7 0.0000 0.0000
06:35 0 -0.6 95 233 1.7 3.9 1017.5 0.0000 0.0000
06:44 0 -0.6 95 247 1.7 3.9 1017.5 0.0000 0.0000
06:54 0 -0.6 95 234 1.4 3.3 1017.3 0.0000 0.0000
07:05 0 -0.6 95 225 1.7 3.3 1017 0.0000 0.0000
07:15 0.1 -0.5 95 240 2.2 4.7 1017 0.0000 0.0000
07:25 0.1 -0.5 95 239 1.9 3.6 1017 0.0000 0.0000
07:34 0.1 -0.5 95 258 1.9 5 1016.9 0.0000 0.0000
07:45 0.1 -0.7 94 246 1.7 3.9 1016.9 0.0000 0.0000
07:55 0.1 -0.7 94 244 1.4 2.8 1017 0.0000 0.0000
08:05 0.2 -0.6 94 246 1.7 3.1 1016.8 0.0000 0.0000
08:15 0.2 -0.6 94 244 1.9 4.2 1016.7 0.0000 0.0000
08:25 0.3 -0.6 93 231 2.2 3.6 1016.6 0.0000 0.0000
08:35 0.4 -0.5 93 237 1.7 3.9 1016.6 0.0000 0.0000
08:45 0.4 -0.5 93 243 1.7 5 1016.5 0.0000 0.0000
08:56 0.5 -0.4 93 241 1.4 3.1 1016.3 0.0000 0.0000
09:06 0.6 -0.5 92 246 2.5 7.5 1016.3 0.0000 0.0000
09:15 0.8 -0.3 92 252 1.9 3.6 1016 0.0000 0.0000
09:20 0.8 -0.3 92 237 2.5 8.3 1016.1 0.0000 0.0000
09:31 0.8 -0.4 91 256 2.8 5.8 1016.3 0.0000 0.0000
09:41 0.9 -0.5 90 244 2.5 6.1 1016.3 0.0000 0.0000
09:51 1 -0.4 90 237 2.8 6.7 1016.1 0.0000 0.0000
10:04 1.2 -0.4 89 244 2.8 8.9 1016.2 0.1010 0.1000
10:13 1.2 -0.5 88 238 3.9 7.8 1016.1 0.1010 0.1000
10:24 1.1 -0.6 88 243 3.1 7.5 1016 0.1010 0.1000
10:34 1.2 -0.5 88 233 2.8 6.7 1015.6 0.1010 0.1000
10:44 1.2 -0.6 87 247 1.9 5 1015.6 0.1010 0.1000
10:54 1.2 -0.6 87 242 3.1 7.2 1015.2 0.1010 0.1000
11:04 1.3 -0.5 87 238 2.5 5.3 1014.8 0.0000 0.1000
11:14 1.3 -0.7 86 239 2.5 6.7 1014.8 0.0000 0.1000
11:24 1.4 -0.6 86 245 2.2 5.6 1014.7 0.0000 0.1000
11:35 1.4 -0.6 86 250 3.1 6.1 1014.7 0.0000 0.1000
11:45 1.4 -0.6 86 255 2.2 5 1014.6 0.0000 0.1000
11:55 1.4 -0.7 85 245 2.5 7.8 1014.5 0.0000 0.1000
12:04 1.4 -0.7 85 250 2.8 6.4 1014.2 0.0000 0.1000
12:15 1.4 -0.7 85 256 2.2 5.8 1014 0.0000 0.1000
12:25 1.3 -0.8 85 262 3.1 7.2 1013.8 0.0000 0.1000
12:35 1.3 -0.8 85 255 2.5 5.3 1013.6 0.0000 0.1000
12:45 1.3 -0.8 85 255 2.2 5.8 1013.6 0.0000 0.1000
12:56 1.3 -0.8 85 262 3.1 6.1 1013.6 0.0000 0.1000
13:05 1.3 -0.8 85 252 3.1 6.1 1013.4 0.0000 0.1000
13:15 1.3 -0.8 85 246 2.8 7.5 1013 0.0000 0.1000
13:26 1.3 -0.8 85 246 3.3 8.9 1012.7 0.0000 0.1000
13:36 1.2 -0.9 85 243 3.1 5.8 1012.7 0.0000 0.1000
13:46 1.2 -0.9 85 246 3.3 6.9 1012.5 0.0000 0.1000
13:56 1.2 -0.8 86 247 1.9 5.6 1012.4 0.0000 0.1000
14:06 1.2 -0.8 86 270 3.1 7.5 1012.2 0.0000 0.1000
14:16 1.2 -0.8 86 243 2.8 6.7 1012.2 0.0000 0.1000
14:26 1.2 -0.8 86 249 3.1 6.7 1012 0.0000 0.1000
14:37 1.2 -0.6 87 247 3.3 6.4 1011.9 0.0000 0.1000
14:46 1.2 -0.6 87 246 2.8 8.3 1011.8 0.0000 0.1000
14:56 1.2 -0.6 87 262 3.1 5.8 1011.8 0.0000 0.1000
15:06 1.2 -0.5 88 250 2.5 4.7 1011.7 0.0000 0.1000
15:17 1 -0.7 88 263 2.5 5.3 1011.7 0.0000 0.1000
15:27 0.9 -0.6 89 245 3.1 6.4 1011.6 0.0000 0.1000
15:37 0.8 -0.6 90 249 2.8 6.1 1011.5 0.0000 0.1000
15:47 0.8 -0.6 90 247 2.5 5.6 1011.5 0.0000 0.1000
15:57 0.7 -0.5 91 244 2.8 5.8 1011.7 0.0000 0.1000
16:07 0.6 -0.5 92 246 3.1 6.4 1011.6 0.0000 0.1000
16:17 0.5 -0.4 93 248 2.5 5.3 1011.5 0.0000 0.1000
16:28 0.4 -0.5 93 242 3.3 7.2 1011.6 0.0000 0.1000
16:37 0.4 -0.4 94 249 3.1 6.4 1011.6 0.0000 0.1000
16:47 0.3 -0.5 94 258 2.5 4.7 1011.4 0.0000 0.1000
16:58 0.3 -0.4 95 246 1.9 5 1011.5 0.0000 0.1000
17:08 0.3 -0.4 95 243 2.5 5.3 1011.5 0.0000 0.1000
17:18 0.3 -0.4 95 252 2.5 5 1011.6 0.0000 0.1000
17:28 0.3 -0.4 95 240 2.5 6.7 1011.4 0.0000 0.1000
17:38 0.3 -0.4 95 248 2.5 5.3 1011.5 0.0000 0.1000
17:47 0.4 -0.3 95 264 2.8 6.4 1011.4 0.0000 0.1000
17:58 0.4 -0.3 95 248 2.5 5.3 1011.3 0.0000 0.1000
18:08 0.4 -0.1 96 248 2.5 5.6 1011.3 0.0000 0.1000
18:19 0.4 -0.1 96 243 2.5 7.5 1011.2 0.0000 0.1000
18:38 0.5 -0.1 96 251 2.2 7.8 1011.3 0.0000 0.1000
18:47 0.5 -0.1 96 237 2.2 6.7 1011.2 0.0000 0.1000
18:57 0.6 0 96 244 2.2 5.6 1011.1 0.0000 0.1000
19:07 0.6 0 96 246 2.5 5.6 1011 0.0000 0.1000
19:18 0.6 0 96 254 1.9 4.4 1011 0.0000 0.1000

DAY STATISTIC

2022-01-27
TEMPERATURE
AVERAGE
0.6
HIGH
1.4
11:24
LOW
-0.1
05:13
PRESSURE
AVERAGE
1015.6
HIGH
1019.9
00:01
LOW
1011.0
19:07
DEWPOINT
AVERAGE
-0.5
HIGH
0.0
18:57
LOW
-0.9
13:36
HUMIDITY
AVERAGE
92
HIGH
96
18:08
LOW
85
11:55
WIND SPEED
AVERAGE
2.1
HIGH
3.9
10:13
WIND GUST
AVERAGE
4.8
HIGH
8.9
10:04
WIND DIRECTION
PREVAILING
SW
53.9%
N
0.0
NE
0.0
E
0.0
SE
0.0
S
0.0
SW
53.9
W
46.1
NW
0.0
PRECIPITATION
RAIN HOUR
0.1
RAIN DAY
0.1
TEMPERATURE (°C)
LOW
-0.1
HIGH
1.4
AVERAGE
0.6
PRESSURE (hpa)
LOW
1011.0
HIGH
1019.9
AVERAGE
1015.6
DEVICE